Noardburgum, Netherlands
Current Conditions -  °F | °C
As of 2:31 PM on Tuesday 21 Oct 2014 (Local Time) from EHLW Reporting Station
Rain Showers Rain Showers  
Wind Chill: 55°   Ceiling: 3100
Heat Index: 55°   Visibility: 6mi
Dew Point: 52°   Wind: 18mph
Humidity: 88%   Direction: 260°W
Pressure: 29.35"   Gusts: 35mph
Location:  53.22°N, 6.01°E
Report Text: EHLW 211231Z AUTO 26016G30KT 9999 SHRA FEW007 FEW015CB SCT016 OVC031 13/11 Q0994 REDZ WHT 21020G35KT 4000 SHRA FEW008 SCT010 BKN012 BECMG 27022G38KT SCT020 BKN040
Loading
Personal Weather Stations






























Interactive Weather Map
Tropical Storm Tracking
New forecast layout! Learn more

10-Day Weather Forecast

Advertisements
Track Severe Weather on mobile